CheckWX is a tool to help pilots better visualize weather data.  It is not intended as a substitute for an official pre-flight weather briefing.

20:37:07 UTC

KMEI TAF
Key Field Airport
Meridian, Mississippi, USA
KMEI 181743Z 1818/1918 18014G22KT P6SM BKN035 FM182100 18023G30KT P6SM VCTS OVC020CB TEMPO 1823/1901 20040G50KT 1SM +TSRA FM190200 27025G33KT 5SM SHRA OVC015 FM190700 33015G23KT P6SM VCSH OVC015 FM191400 32018G25KT P6SM OVC025

Apr-18@
18:00 UTC

Apr-18 @ 18:00 UTC

Apr-18@
21:00 UTC

Apr-18 @ 21:00 UTC

KMEI 181743Z 1818/1918 18014G22KT P6SM BKN035
Wind
  • 180° at 14 KTS
  • {Gusting to 22 KTS
Cloud Levels
  • Broken at 3,500' AGL

Apr-18@
21:00 UTC

Apr-18 @ 21:00 UTC

Apr-19@
02:00 UTC

Apr-19 @ 02:00 UTC

FM182100 18023G30KT P6SM VCTS OVC020CB

From

From Standard forecast or significant change

Wind
  • 180° at 23 KTS
  • {Gusting to 30 KTS
Conditions
Area Thunderstorm
Cloud Levels
  • Overcast at 2,000' AGL

Apr-18@
23:00 UTC

Apr-18 @ 23:00 UTC

Apr-19@
01:00 UTC

Apr-19 @ 01:00 UTC

TEMPO 1823/1901 20040G50KT 1SM +TSRA

Temporary

Temporary Changes expected for less than half the time period

Wind
  • 200° at 40 KTS
  • {Gusting to 50 KTS
Conditions
Heavy Thunderstorm, Heavy Rain

Apr-19@
02:00 UTC

Apr-19 @ 02:00 UTC

Apr-19@
07:00 UTC

Apr-19 @ 07:00 UTC

FM190200 27025G33KT 5SM SHRA OVC015

From

From Standard forecast or significant change

Wind
  • 270° at 25 KTS
  • {Gusting to 33 KTS
Conditions
Rain
Cloud Levels
  • Overcast at 1,500' AGL

Apr-19@
07:00 UTC

Apr-19 @ 07:00 UTC

Apr-19@
14:00 UTC

Apr-19 @ 14:00 UTC

FM190700 33015G23KT P6SM VCSH OVC015

From

From Standard forecast or significant change

Wind
  • 330° at 15 KTS
  • {Gusting to 23 KTS
Cloud Levels
  • Overcast at 1,500' AGL

Apr-19@
14:00 UTC

Apr-19 @ 14:00 UTC

Apr-19@
18:00 UTC

Apr-19 @ 18:00 UTC

FM191400 32018G25KT P6SM OVC025

From

From Standard forecast or significant change

Wind
  • 320° at 18 KTS
  • {Gusting to 25 KTS
Cloud Levels
  • Overcast at 2,500' AGL